sensor_id;sensor_type;location;lat;lon;timestamp;temperature;humidity
6270;DHT22;3168;51.684;6.954;2024-02-26T00:00:37;5.40;1.00
6270;DHT22;3168;51.684;6.954;2024-02-26T00:03:04;5.40;1.00
6270;DHT22;3168;51.684;6.954;2024-02-26T00:05:30;5.40;1.00
6270;DHT22;3168;51.684;6.954;2024-02-26T00:07:55;5.40;1.00
6270;DHT22;3168;51.684;6.954;2024-02-26T00:10:21;5.50;1.00
6270;DHT22;3168;51.684;6.954;2024-02-26T00:12:47;5.50;1.00
6270;DHT22;3168;51.684;6.954;2024-02-26T00:15:13;5.40;1.00
6270;DHT22;3168;51.684;6.954;2024-02-26T00:17:39;5.40;1.00
6270;DHT22;3168;51.684;6.954;2024-02-26T00:20:05;5.40;1.00
6270;DHT22;3168;51.684;6.954;2024-02-26T00:22:31;5.50;1.00
6270;DHT22;3168;51.684;6.954;2024-02-26T00:24:57;5.50;1.00
6270;DHT22;3168;51.684;6.954;2024-02-26T00:27:23;5.50;1.00
6270;DHT22;3168;51.684;6.954;2024-02-26T00:29:49;5.50;1.00
6270;DHT22;3168;51.684;6.954;2024-02-26T00:32:14;5.50;1.00
6270;DHT22;3168;51.684;6.954;2024-02-26T00:34:40;5.50;1.00
6270;DHT22;3168;51.684;6.954;2024-02-26T00:37:06;5.50;1.00
6270;DHT22;3168;51.684;6.954;2024-02-26T00:39:32;5.40;1.00
6270;DHT22;3168;51.684;6.954;2024-02-26T00:41:58;5.40;1.00
6270;DHT22;3168;51.684;6.954;2024-02-26T00:44:23;5.40;1.00
6270;DHT22;3168;51.684;6.954;2024-02-26T00:46:49;5.40;1.00
6270;DHT22;3168;51.684;6.954;2024-02-26T00:49:15;5.40;1.00
6270;DHT22;3168;51.684;6.954;2024-02-26T00:51:41;5.40;1.00
6270;DHT22;3168;51.684;6.954;2024-02-26T00:54:07;5.40;1.00
6270;DHT22;3168;51.684;6.954;2024-02-26T00:56:32;5.40;1.00
6270;DHT22;3168;51.684;6.954;2024-02-26T00:58:58;5.40;1.00
6270;DHT22;3168;51.684;6.954;2024-02-26T01:01:24;5.40;1.00
6270;DHT22;3168;51.684;6.954;2024-02-26T01:03:50;5.40;1.00
6270;DHT22;3168;51.684;6.954;2024-02-26T01:06:16;5.40;1.00
6270;DHT22;3168;51.684;6.954;2024-02-26T01:08:42;5.40;1.00
6270;DHT22;3168;51.684;6.954;2024-02-26T01:11:07;5.40;1.00
6270;DHT22;3168;51.684;6.954;2024-02-26T01:13:33;5.40;1.00
6270;DHT22;3168;51.684;6.954;2024-02-26T01:15:59;5.40;1.00
6270;DHT22;3168;51.684;6.954;2024-02-26T01:18:25;5.50;1.00
6270;DHT22;3168;51.684;6.954;2024-02-26T01:20:51;5.50;1.00
6270;DHT22;3168;51.684;6.954;2024-02-26T01:23:16;5.50;1.00
6270;DHT22;3168;51.684;6.954;2024-02-26T01:25:42;5.50;1.00
6270;DHT22;3168;51.684;6.954;2024-02-26T01:28:08;5.40;1.00
6270;DHT22;3168;51.684;6.954;2024-02-26T01:30:34;5.50;1.00
6270;DHT22;3168;51.684;6.954;2024-02-26T01:33:00;5.50;1.00
6270;DHT22;3168;51.684;6.954;2024-02-26T01:35:25;5.50;1.00
6270;DHT22;3168;51.684;6.954;2024-02-26T01:37:51;5.60;1.00
6270;DHT22;3168;51.684;6.954;2024-02-26T01:40:17;5.50;1.00
6270;DHT22;3168;51.684;6.954;2024-02-26T01:42:43;5.50;1.00
6270;DHT22;3168;51.684;6.954;2024-02-26T01:45:14;5.50;1.00
6270;DHT22;3168;51.684;6.954;2024-02-26T01:47:38;5.50;1.00
6270;DHT22;3168;51.684;6.954;2024-02-26T01:50:04;5.60;1.00
6270;DHT22;3168;51.684;6.954;2024-02-26T01:52:30;5.60;1.00
6270;DHT22;3168;51.684;6.954;2024-02-26T01:54:56;5.60;1.00
6270;DHT22;3168;51.684;6.954;2024-02-26T01:57:22;5.60;1.00
6270;DHT22;3168;51.684;6.954;2024-02-26T01:59:48;5.60;1.00
6270;DHT22;3168;51.684;6.954;2024-02-26T02:02:13;5.60;1.00
6270;DHT22;3168;51.684;6.954;2024-02-26T02:04:39;5.70;1.00
6270;DHT22;3168;51.684;6.954;2024-02-26T02:07:05;5.60;1.00
6270;DHT22;3168;51.684;6.954;2024-02-26T02:09:31;5.60;1.00
6270;DHT22;3168;51.684;6.954;2024-02-26T02:11:57;5.70;1.00
6270;DHT22;3168;51.684;6.954;2024-02-26T02:14:23;5.60;1.00
6270;DHT22;3168;51.684;6.954;2024-02-26T02:16:48;5.60;1.00
6270;DHT22;3168;51.684;6.954;2024-02-26T02:19:14;5.70;1.00
6270;DHT22;3168;51.684;6.954;2024-02-26T02:21:40;5.80;1.00
6270;DHT22;3168;51.684;6.954;2024-02-26T02:24:06;5.70;1.00
6270;DHT22;3168;51.684;6.954;2024-02-26T02:26:32;5.70;1.00
6270;DHT22;3168;51.684;6.954;2024-02-26T02:28:58;5.70;1.00
6270;DHT22;3168;51.684;6.954;2024-02-26T02:31:24;5.60;1.00
6270;DHT22;3168;51.684;6.954;2024-02-26T02:33:49;5.60;1.00
6270;DHT22;3168;51.684;6.954;2024-02-26T02:36:15;5.70;1.00
6270;DHT22;3168;51.684;6.954;2024-02-26T02:38:48;5.60;1.00
6270;DHT22;3168;51.684;6.954;2024-02-26T02:41:14;5.60;1.00
6270;DHT22;3168;51.684;6.954;2024-02-26T02:43:40;5.60;1.00
6270;DHT22;3168;51.684;6.954;2024-02-26T02:46:05;5.60;1.00
6270;DHT22;3168;51.684;6.954;2024-02-26T02:48:31;5.60;1.00
6270;DHT22;3168;51.684;6.954;2024-02-26T02:50:57;5.70;1.00
6270;DHT22;3168;51.684;6.954;2024-02-26T02:53:23;5.70;1.00
6270;DHT22;3168;51.684;6.954;2024-02-26T02:55:49;5.70;1.00
6270;DHT22;3168;51.684;6.954;2024-02-26T02:58:15;5.70;1.00
6270;DHT22;3168;51.684;6.954;2024-02-26T03:00:41;5.70;1.00
6270;DHT22;3168;51.684;6.954;2024-02-26T03:03:06;5.70;1.00
6270;DHT22;3168;51.684;6.954;2024-02-26T03:05:32;5.70;1.00
6270;DHT22;3168;51.684;6.954;2024-02-26T03:07:58;5.70;1.00
6270;DHT22;3168;51.684;6.954;2024-02-26T03:10:24;5.70;1.00
6270;DHT22;3168;51.684;6.954;2024-02-26T03:12:50;5.70;1.00
6270;DHT22;3168;51.684;6.954;2024-02-26T03:15:16;5.70;1.00
6270;DHT22;3168;51.684;6.954;2024-02-26T03:17:42;5.70;1.00
6270;DHT22;3168;51.684;6.954;2024-02-26T03:20:08;5.80;1.00
6270;DHT22;3168;51.684;6.954;2024-02-26T03:22:34;5.70;1.00
6270;DHT22;3168;51.684;6.954;2024-02-26T03:25:00;5.70;1.00
6270;DHT22;3168;51.684;6.954;2024-02-26T03:27:26;5.70;1.00
6270;DHT22;3168;51.684;6.954;2024-02-26T03:29:52;5.70;1.00
6270;DHT22;3168;51.684;6.954;2024-02-26T03:32:18;5.70;1.00
6270;DHT22;3168;51.684;6.954;2024-02-26T03:34:43;5.70;1.00
6270;DHT22;3168;51.684;6.954;2024-02-26T03:37:09;5.70;1.00
6270;DHT22;3168;51.684;6.954;2024-02-26T03:39:35;5.70;1.00
6270;DHT22;3168;51.684;6.954;2024-02-26T03:42:01;5.70;1.00
6270;DHT22;3168;51.684;6.954;2024-02-26T03:44:27;5.70;1.00
6270;DHT22;3168;51.684;6.954;2024-02-26T03:46:52;5.60;1.00
6270;DHT22;3168;51.684;6.954;2024-02-26T03:49:18;5.60;1.00
6270;DHT22;3168;51.684;6.954;2024-02-26T03:51:44;5.50;1.00
6270;DHT22;3168;51.684;6.954;2024-02-26T03:54:10;5.50;1.00
6270;DHT22;3168;51.684;6.954;2024-02-26T03:56:36;5.50;1.00
6270;DHT22;3168;51.684;6.954;2024-02-26T03:59:01;5.40;1.00
6270;DHT22;3168;51.684;6.954;2024-02-26T04:01:27;5.40;1.00
6270;DHT22;3168;51.684;6.954;2024-02-26T04:03:53;5.40;1.00
6270;DHT22;3168;51.684;6.954;2024-02-26T04:06:19;5.40;1.00
6270;DHT22;3168;51.684;6.954;2024-02-26T04:08:45;5.50;1.00
6270;DHT22;3168;51.684;6.954;2024-02-26T04:11:10;5.40;1.00
6270;DHT22;3168;51.684;6.954;2024-02-26T04:13:36;5.40;1.00
6270;DHT22;3168;51.684;6.954;2024-02-26T04:16:04;5.50;1.00
6270;DHT22;3168;51.684;6.954;2024-02-26T04:18:29;5.40;1.00
6270;DHT22;3168;51.684;6.954;2024-02-26T04:20:55;5.40;1.00
6270;DHT22;3168;51.684;6.954;2024-02-26T04:23:21;5.40;1.00
6270;DHT22;3168;51.684;6.954;2024-02-26T04:25:47;5.30;1.00
6270;DHT22;3168;51.684;6.954;2024-02-26T04:28:13;5.30;1.00
6270;DHT22;3168;51.684;6.954;2024-02-26T04:30:39;5.20;1.00
6270;DHT22;3168;51.684;6.954;2024-02-26T04:33:04;5.30;1.00
6270;DHT22;3168;51.684;6.954;2024-02-26T04:35:30;5.30;1.00
6270;DHT22;3168;51.684;6.954;2024-02-26T04:37:56;5.30;1.00
6270;DHT22;3168;51.684;6.954;2024-02-26T04:40:22;5.30;1.00
6270;DHT22;3168;51.684;6.954;2024-02-26T04:42:48;5.20;1.00
6270;DHT22;3168;51.684;6.954;2024-02-26T04:45:14;5.30;1.00
6270;DHT22;3168;51.684;6.954;2024-02-26T04:47:39;5.20;1.00
6270;DHT22;3168;51.684;6.954;2024-02-26T04:50:06;5.20;1.00
6270;DHT22;3168;51.684;6.954;2024-02-26T04:52:32;5.10;1.00
6270;DHT22;3168;51.684;6.954;2024-02-26T04:54:57;5.10;1.00
6270;DHT22;3168;51.684;6.954;2024-02-26T04:57:23;5.10;1.00
6270;DHT22;3168;51.684;6.954;2024-02-26T04:59:49;5.10;1.00
6270;DHT22;3168;51.684;6.954;2024-02-26T05:02:15;5.10;1.00
6270;DHT22;3168;51.684;6.954;2024-02-26T05:04:41;5.10;1.00
6270;DHT22;3168;51.684;6.954;2024-02-26T05:07:07;5.10;1.00
6270;DHT22;3168;51.684;6.954;2024-02-26T05:09:33;5.10;1.00
6270;DHT22;3168;51.684;6.954;2024-02-26T05:11:58;5.10;2.40
6270;DHT22;3168;51.684;6.954;2024-02-26T05:14:24;5.00;13.30
6270;DHT22;3168;51.684;6.954;2024-02-26T05:16:50;5.00;20.80
6270;DHT22;3168;51.684;6.954;2024-02-26T05:19:16;5.00;24.30
6270;DHT22;3168;51.684;6.954;2024-02-26T05:21:41;5.00;26.10
6270;DHT22;3168;51.684;6.954;2024-02-26T05:24:07;5.00;27.60
6270;DHT22;3168;51.684;6.954;2024-02-26T05:26:33;5.00;49.80
6270;DHT22;3168;51.684;6.954;2024-02-26T05:28:59;5.00;43.70
6270;DHT22;3168;51.684;6.954;2024-02-26T05:31:25;5.00;57.20
6270;DHT22;3168;51.684;6.954;2024-02-26T05:33:51;4.90;56.90
6270;DHT22;3168;51.684;6.954;2024-02-26T05:36:18;5.00;57.40
6270;DHT22;3168;51.684;6.954;2024-02-26T05:38:44;5.00;57.20
6270;DHT22;3168;51.684;6.954;2024-02-26T05:41:09;4.90;57.00
6270;DHT22;3168;51.684;6.954;2024-02-26T05:43:35;4.90;57.20
6270;DHT22;3168;51.684;6.954;2024-02-26T05:46:01;4.90;57.40
6270;DHT22;3168;51.684;6.954;2024-02-26T05:48:27;4.90;77.10
6270;DHT22;3168;51.684;6.954;2024-02-26T05:50:53;4.90;83.10
6270;DHT22;3168;51.684;6.954;2024-02-26T05:53:18;4.80;86.10
6270;DHT22;3168;51.684;6.954;2024-02-26T05:55:44;4.80;95.20
6270;DHT22;3168;51.684;6.954;2024-02-26T05:58:10;4.80;99.90
6270;DHT22;3168;51.684;6.954;2024-02-26T06:00:36;4.80;99.90
6270;DHT22;3168;51.684;6.954;2024-02-26T06:03:02;4.80;99.90
6270;DHT22;3168;51.684;6.954;2024-02-26T06:05:28;4.80;99.90
6270;DHT22;3168;51.684;6.954;2024-02-26T06:07:53;4.80;99.90
6270;DHT22;3168;51.684;6.954;2024-02-26T06:10:20;4.90;99.90
6270;DHT22;3168;51.684;6.954;2024-02-26T06:12:45;4.80;99.90
6270;DHT22;3168;51.684;6.954;2024-02-26T06:15:11;4.80;99.90
6270;DHT22;3168;51.684;6.954;2024-02-26T06:17:37;4.80;99.90
6270;DHT22;3168;51.684;6.954;2024-02-26T06:20:03;4.80;99.90
6270;DHT22;3168;51.684;6.954;2024-02-26T06:22:29;4.80;99.90
6270;DHT22;3168;51.684;6.954;2024-02-26T06:24:55;4.80;99.90
6270;DHT22;3168;51.684;6.954;2024-02-26T06:27:20;4.90;99.90
6270;DHT22;3168;51.684;6.954;2024-02-26T06:29:46;4.80;99.90
6270;DHT22;3168;51.684;6.954;2024-02-26T06:32:12;4.80;99.90
6270;DHT22;3168;51.684;6.954;2024-02-26T06:34:38;4.80;99.90
6270;DHT22;3168;51.684;6.954;2024-02-26T06:37:04;4.80;99.90
6270;DHT22;3168;51.684;6.954;2024-02-26T06:39:30;4.80;99.90
6270;DHT22;3168;51.684;6.954;2024-02-26T06:41:56;4.80;99.90
6270;DHT22;3168;51.684;6.954;2024-02-26T06:44:22;4.80;99.90
6270;DHT22;3168;51.684;6.954;2024-02-26T06:46:47;4.80;99.90
6270;DHT22;3168;51.684;6.954;2024-02-26T06:49:13;4.80;99.90
6270;DHT22;3168;51.684;6.954;2024-02-26T06:51:39;4.80;99.90
6270;DHT22;3168;51.684;6.954;2024-02-26T06:54:05;4.80;99.90
6270;DHT22;3168;51.684;6.954;2024-02-26T06:56:31;4.80;99.90
6270;DHT22;3168;51.684;6.954;2024-02-26T06:58:56;4.80;99.90
6270;DHT22;3168;51.684;6.954;2024-02-26T07:01:23;4.80;99.90
6270;DHT22;3168;51.684;6.954;2024-02-26T07:03:51;4.80;99.90
6270;DHT22;3168;51.684;6.954;2024-02-26T07:06:20;4.80;99.90
6270;DHT22;3168;51.684;6.954;2024-02-26T07:08:46;4.80;99.90
6270;DHT22;3168;51.684;6.954;2024-02-26T07:11:12;4.80;99.90
6270;DHT22;3168;51.684;6.954;2024-02-26T07:13:37;4.80;99.90
6270;DHT22;3168;51.684;6.954;2024-02-26T07:16:04;4.80;99.90
6270;DHT22;3168;51.684;6.954;2024-02-26T07:18:30;4.80;99.90
6270;DHT22;3168;51.684;6.954;2024-02-26T07:20:56;4.90;99.90
6270;DHT22;3168;51.684;6.954;2024-02-26T07:23:21;4.90;99.90
6270;DHT22;3168;51.684;6.954;2024-02-26T07:25:47;4.90;99.90
6270;DHT22;3168;51.684;6.954;2024-02-26T07:28:13;4.90;99.90
6270;DHT22;3168;51.684;6.954;2024-02-26T07:30:39;5.00;99.90
6270;DHT22;3168;51.684;6.954;2024-02-26T07:33:05;5.00;99.90
6270;DHT22;3168;51.684;6.954;2024-02-26T07:35:31;5.00;99.90
6270;DHT22;3168;51.684;6.954;2024-02-26T07:37:57;5.00;99.90
6270;DHT22;3168;51.684;6.954;2024-02-26T07:40:23;5.00;99.90
6270;DHT22;3168;51.684;6.954;2024-02-26T07:42:49;5.00;99.90
6270;DHT22;3168;51.684;6.954;2024-02-26T07:45:14;5.10;99.90
6270;DHT22;3168;51.684;6.954;2024-02-26T07:47:40;5.10;99.90
6270;DHT22;3168;51.684;6.954;2024-02-26T07:50:07;5.10;99.90
6270;DHT22;3168;51.684;6.954;2024-02-26T07:52:33;5.10;93.90
6270;DHT22;3168;51.684;6.954;2024-02-26T07:54:59;5.10;93.90
6270;DHT22;3168;51.684;6.954;2024-02-26T07:57:25;5.20;95.10
6270;DHT22;3168;51.684;6.954;2024-02-26T07:59:50;5.20;90.00
6270;DHT22;3168;51.684;6.954;2024-02-26T08:02:16;5.20;90.90
6270;DHT22;3168;51.684;6.954;2024-02-26T08:04:42;5.30;90.00
6270;DHT22;3168;51.684;6.954;2024-02-26T08:07:08;5.30;83.60
6270;DHT22;3168;51.684;6.954;2024-02-26T08:09:34;5.30;63.90
6270;DHT22;3168;51.684;6.954;2024-02-26T08:11:59;5.30;57.80
6270;DHT22;3168;51.684;6.954;2024-02-26T08:14:25;5.40;57.50
6270;DHT22;3168;51.684;6.954;2024-02-26T08:16:51;5.40;57.50
6270;DHT22;3168;51.684;6.954;2024-02-26T08:19:17;5.50;57.60
6270;DHT22;3168;51.684;6.954;2024-02-26T08:21:43;5.50;57.60
6270;DHT22;3168;51.684;6.954;2024-02-26T08:24:08;5.50;46.10
6270;DHT22;3168;51.684;6.954;2024-02-26T08:26:34;5.60;33.10
6270;DHT22;3168;51.684;6.954;2024-02-26T08:29:00;5.60;31.10
6270;DHT22;3168;51.684;6.954;2024-02-26T08:31:26;5.60;26.00
6270;DHT22;3168;51.684;6.954;2024-02-26T08:33:52;5.60;27.50
6270;DHT22;3168;51.684;6.954;2024-02-26T08:36:18;5.70;33.70
6270;DHT22;3168;51.684;6.954;2024-02-26T08:38:43;5.70;25.70
6270;DHT22;3168;51.684;6.954;2024-02-26T08:41:09;5.70;20.30
6270;DHT22;3168;51.684;6.954;2024-02-26T08:43:35;5.70;19.60
6270;DHT22;3168;51.684;6.954;2024-02-26T08:46:01;5.80;16.00
6270;DHT22;3168;51.684;6.954;2024-02-26T08:48:27;5.80;14.10
6270;DHT22;3168;51.684;6.954;2024-02-26T08:50:53;5.80;12.00
6270;DHT22;3168;51.684;6.954;2024-02-26T08:53:19;5.80;7.10
6270;DHT22;3168;51.684;6.954;2024-02-26T08:55:45;5.80;9.50
6270;DHT22;3168;51.684;6.954;2024-02-26T08:58:10;5.80;13.70
6270;DHT22;3168;51.684;6.954;2024-02-26T09:00:36;5.80;10.90
6270;DHT22;3168;51.684;6.954;2024-02-26T09:03:02;5.90;8.10
6270;DHT22;3168;51.684;6.954;2024-02-26T09:05:28;5.90;7.10
6270;DHT22;3168;51.684;6.954;2024-02-26T09:07:54;5.90;14.60
6270;DHT22;3168;51.684;6.954;2024-02-26T09:10:20;5.90;7.10
6270;DHT22;3168;51.684;6.954;2024-02-26T09:12:45;6.00;6.00
6270;DHT22;3168;51.684;6.954;2024-02-26T09:15:11;6.00;3.80
6270;DHT22;3168;51.684;6.954;2024-02-26T09:17:37;6.10;11.80
6270;DHT22;3168;51.684;6.954;2024-02-26T09:20:04;6.00;14.20
6270;DHT22;3168;51.684;6.954;2024-02-26T09:22:30;6.00;12.90
6270;DHT22;3168;51.684;6.954;2024-02-26T09:24:55;6.10;11.80
6270;DHT22;3168;51.684;6.954;2024-02-26T09:27:21;6.10;14.10
6270;DHT22;3168;51.684;6.954;2024-02-26T09:29:47;6.10;8.80
6270;DHT22;3168;51.684;6.954;2024-02-26T09:32:13;6.10;10.00
6270;DHT22;3168;51.684;6.954;2024-02-26T09:34:40;6.10;7.10
6270;DHT22;3168;51.684;6.954;2024-02-26T09:37:06;6.10;10.40
6270;DHT22;3168;51.684;6.954;2024-02-26T09:39:32;6.10;13.70
6270;DHT22;3168;51.684;6.954;2024-02-26T09:41:57;6.10;14.90
6270;DHT22;3168;51.684;6.954;2024-02-26T09:44:25;6.10;19.60
6270;DHT22;3168;51.684;6.954;2024-02-26T09:46:54;6.20;14.10
6270;DHT22;3168;51.684;6.954;2024-02-26T09:49:21;6.20;13.30
6270;DHT22;3168;51.684;6.954;2024-02-26T09:51:49;6.20;7.00
6270;DHT22;3168;51.684;6.954;2024-02-26T09:54:15;6.20;10.90
6270;DHT22;3168;51.684;6.954;2024-02-26T09:56:41;6.10;14.60
6270;DHT22;3168;51.684;6.954;2024-02-26T09:59:16;6.20;21.80
6270;DHT22;3168;51.684;6.954;2024-02-26T10:01:33;6.20;16.00
6270;DHT22;3168;51.684;6.954;2024-02-26T10:03:58;6.20;7.60
6270;DHT22;3168;51.684;6.954;2024-02-26T10:06:26;6.20;12.60
6270;DHT22;3168;51.684;6.954;2024-02-26T10:08:54;6.30;8.60
6270;DHT22;3168;51.684;6.954;2024-02-26T10:11:22;6.30;2.30
6270;DHT22;3168;51.684;6.954;2024-02-26T10:13:50;6.30;1.00
6270;DHT22;3168;51.684;6.954;2024-02-26T10:16:16;6.30;1.00
6270;DHT22;3168;51.684;6.954;2024-02-26T10:18:48;6.40;1.00
6270;DHT22;3168;51.684;6.954;2024-02-26T10:21:13;6.40;1.00
6270;DHT22;3168;51.684;6.954;2024-02-26T10:23:39;6.40;1.00
6270;DHT22;3168;51.684;6.954;2024-02-26T10:26:05;6.40;1.00
6270;DHT22;3168;51.684;6.954;2024-02-26T10:28:30;6.40;1.00
6270;DHT22;3168;51.684;6.954;2024-02-26T10:30:56;6.40;1.00
6270;DHT22;3168;51.684;6.954;2024-02-26T10:33:22;6.50;1.00
6270;DHT22;3168;51.684;6.954;2024-02-26T10:35:48;6.50;1.00
6270;DHT22;3168;51.684;6.954;2024-02-26T10:38:14;6.40;1.00
6270;DHT22;3168;51.684;6.954;2024-02-26T10:40:39;6.50;1.00
6270;DHT22;3168;51.684;6.954;2024-02-26T10:43:05;6.50;1.00
6270;DHT22;3168;51.684;6.954;2024-02-26T10:45:31;6.50;1.00
6270;DHT22;3168;51.684;6.954;2024-02-26T10:47:57;6.50;1.00
6270;DHT22;3168;51.684;6.954;2024-02-26T10:50:23;6.50;1.00
6270;DHT22;3168;51.684;6.954;2024-02-26T10:52:48;6.40;1.00
6270;DHT22;3168;51.684;6.954;2024-02-26T10:55:15;6.40;1.00
6270;DHT22;3168;51.684;6.954;2024-02-26T10:57:41;6.40;1.00
6270;DHT22;3168;51.684;6.954;2024-02-26T11:00:07;6.40;1.00
6270;DHT22;3168;51.684;6.954;2024-02-26T11:02:34;6.30;1.00
6270;DHT22;3168;51.684;6.954;2024-02-26T11:05:01;6.20;1.00
6270;DHT22;3168;51.684;6.954;2024-02-26T11:07:25;6.30;1.00
6270;DHT22;3168;51.684;6.954;2024-02-26T11:09:51;6.30;1.00
6270;DHT22;3168;51.684;6.954;2024-02-26T11:12:17;6.30;1.00
6270;DHT22;3168;51.684;6.954;2024-02-26T11:14:44;6.30;1.00
6270;DHT22;3168;51.684;6.954;2024-02-26T11:17:09;6.30;1.00
6270;DHT22;3168;51.684;6.954;2024-02-26T11:19:35;6.30;1.00
6270;DHT22;3168;51.684;6.954;2024-02-26T11:22:01;6.40;1.00
6270;DHT22;3168;51.684;6.954;2024-02-26T11:24:26;6.40;1.00
6270;DHT22;3168;51.684;6.954;2024-02-26T11:26:55;6.50;1.00
6270;DHT22;3168;51.684;6.954;2024-02-26T11:29:21;6.50;1.00
6270;DHT22;3168;51.684;6.954;2024-02-26T11:31:45;6.50;1.00
6270;DHT22;3168;51.684;6.954;2024-02-26T11:34:11;6.50;1.00
6270;DHT22;3168;51.684;6.954;2024-02-26T11:36:36;6.50;1.00
6270;DHT22;3168;51.684;6.954;2024-02-26T11:39:03;6.50;1.00
6270;DHT22;3168;51.684;6.954;2024-02-26T11:41:28;6.50;1.00
6270;DHT22;3168;51.684;6.954;2024-02-26T11:44:01;6.50;1.00
6270;DHT22;3168;51.684;6.954;2024-02-26T11:46:26;6.50;1.00
6270;DHT22;3168;51.684;6.954;2024-02-26T11:48:51;6.50;1.00
6270;DHT22;3168;51.684;6.954;2024-02-26T11:51:17;6.50;1.00
6270;DHT22;3168;51.684;6.954;2024-02-26T11:53:46;6.40;1.00
6270;DHT22;3168;51.684;6.954;2024-02-26T11:56:21;6.50;1.00
6270;DHT22;3168;51.684;6.954;2024-02-26T11:58:46;6.40;1.00
6270;DHT22;3168;51.684;6.954;2024-02-26T12:03:50;6.30;1.00
6270;DHT22;3168;51.684;6.954;2024-02-26T12:06:15;6.30;1.00
6270;DHT22;3168;51.684;6.954;2024-02-26T12:08:41;6.30;1.00
6270;DHT22;3168;51.684;6.954;2024-02-26T12:11:14;6.30;1.00
6270;DHT22;3168;51.684;6.954;2024-02-26T12:13:33;6.20;1.00
6270;DHT22;3168;51.684;6.954;2024-02-26T12:15:59;6.20;1.00
6270;DHT22;3168;51.684;6.954;2024-02-26T12:18:25;6.20;1.00
6270;DHT22;3168;51.684;6.954;2024-02-26T12:21:02;6.10;3.60
6270;DHT22;3168;51.684;6.954;2024-02-26T12:23:27;6.10;10.70
6270;DHT22;3168;51.684;6.954;2024-02-26T12:25:53;6.20;5.60
6270;DHT22;3168;51.684;6.954;2024-02-26T12:28:19;6.10;21.20
6270;DHT22;3168;51.684;6.954;2024-02-26T12:30:44;6.10;23.70
6270;DHT22;3168;51.684;6.954;2024-02-26T12:33:10;6.20;33.50
6270;DHT22;3168;51.684;6.954;2024-02-26T12:35:36;6.20;22.50
6270;DHT22;3168;51.684;6.954;2024-02-26T12:38:02;6.10;15.40
6270;DHT22;3168;51.684;6.954;2024-02-26T12:40:28;6.20;15.40
6270;DHT22;3168;51.684;6.954;2024-02-26T12:42:54;6.10;28.50
6270;DHT22;3168;51.684;6.954;2024-02-26T12:45:20;6.10;29.80
6270;DHT22;3168;51.684;6.954;2024-02-26T12:47:45;6.20;36.70
6270;DHT22;3168;51.684;6.954;2024-02-26T12:50:12;6.30;31.60
6270;DHT22;3168;51.684;6.954;2024-02-26T12:52:46;6.30;30.60
6270;DHT22;3168;51.684;6.954;2024-02-26T12:55:15;6.40;28.00
6270;DHT22;3168;51.684;6.954;2024-02-26T12:57:37;6.40;2.60
6270;DHT22;3168;51.684;6.954;2024-02-26T13:00:04;6.50;9.70
6270;DHT22;3168;51.684;6.954;2024-02-26T13:02:30;6.60;1.40
6270;DHT22;3168;51.684;6.954;2024-02-26T13:04:55;6.50;6.30
6270;DHT22;3168;51.684;6.954;2024-02-26T13:07:21;6.60;9.60
6270;DHT22;3168;51.684;6.954;2024-02-26T13:09:47;6.60;7.00
6270;DHT22;3168;51.684;6.954;2024-02-26T13:12:13;6.60;6.00
6270;DHT22;3168;51.684;6.954;2024-02-26T13:14:39;6.50;14.70
6270;DHT22;3168;51.684;6.954;2024-02-26T13:17:05;6.50;17.60
6270;DHT22;3168;51.684;6.954;2024-02-26T13:19:31;6.60;7.90
6270;DHT22;3168;51.684;6.954;2024-02-26T13:22:03;6.60;7.90
6270;DHT22;3168;51.684;6.954;2024-02-26T13:24:22;6.60;1.00
6270;DHT22;3168;51.684;6.954;2024-02-26T13:26:54;6.60;4.00
6270;DHT22;3168;51.684;6.954;2024-02-26T13:29:19;6.70;7.70
6270;DHT22;3168;51.684;6.954;2024-02-26T13:31:45;6.70;7.50
6270;DHT22;3168;51.684;6.954;2024-02-26T13:34:11;6.70;3.60
6270;DHT22;3168;51.684;6.954;2024-02-26T13:36:37;6.70;1.00
6270;DHT22;3168;51.684;6.954;2024-02-26T13:39:03;6.60;1.00
6270;DHT22;3168;51.684;6.954;2024-02-26T13:41:28;6.60;1.00
6270;DHT22;3168;51.684;6.954;2024-02-26T13:43:54;6.60;4.60
6270;DHT22;3168;51.684;6.954;2024-02-26T13:46:20;6.60;3.90
6270;DHT22;3168;51.684;6.954;2024-02-26T13:48:46;6.60;8.10
6270;DHT22;3168;51.684;6.954;2024-02-26T13:51:12;6.70;1.00
6270;DHT22;3168;51.684;6.954;2024-02-26T13:53:37;6.70;1.00
6270;DHT22;3168;51.684;6.954;2024-02-26T13:56:03;6.60;1.00
6270;DHT22;3168;51.684;6.954;2024-02-26T13:58:29;6.60;1.00
6270;DHT22;3168;51.684;6.954;2024-02-26T14:00:55;6.50;1.00
6270;DHT22;3168;51.684;6.954;2024-02-26T14:03:21;6.60;1.00
6270;DHT22;3168;51.684;6.954;2024-02-26T14:05:47;6.60;1.00
6270;DHT22;3168;51.684;6.954;2024-02-26T14:08:13;6.70;1.00
6270;DHT22;3168;51.684;6.954;2024-02-26T14:10:39;6.70;1.00
6270;DHT22;3168;51.684;6.954;2024-02-26T14:13:04;6.70;1.00
6270;DHT22;3168;51.684;6.954;2024-02-26T14:15:30;6.70;1.00
6270;DHT22;3168;51.684;6.954;2024-02-26T14:17:56;6.80;1.00
6270;DHT22;3168;51.684;6.954;2024-02-26T14:20:22;6.80;1.00
6270;DHT22;3168;51.684;6.954;2024-02-26T14:22:48;6.70;1.00
6270;DHT22;3168;51.684;6.954;2024-02-26T14:25:14;6.70;1.00
6270;DHT22;3168;51.684;6.954;2024-02-26T14:27:39;6.70;1.00
6270;DHT22;3168;51.684;6.954;2024-02-26T14:30:06;6.70;1.00
6270;DHT22;3168;51.684;6.954;2024-02-26T14:32:32;6.70;1.00
6270;DHT22;3168;51.684;6.954;2024-02-26T14:34:58;6.60;1.00
6270;DHT22;3168;51.684;6.954;2024-02-26T14:37:24;6.70;1.00
6270;DHT22;3168;51.684;6.954;2024-02-26T14:39:50;6.70;1.00
6270;DHT22;3168;51.684;6.954;2024-02-26T14:42:16;6.70;1.00
6270;DHT22;3168;51.684;6.954;2024-02-26T14:44:43;6.70;1.00
6270;DHT22;3168;51.684;6.954;2024-02-26T14:47:09;6.60;1.00
6270;DHT22;3168;51.684;6.954;2024-02-26T14:49:34;6.60;1.00
6270;DHT22;3168;51.684;6.954;2024-02-26T14:52:01;6.50;1.00
6270;DHT22;3168;51.684;6.954;2024-02-26T14:54:28;6.50;1.00
6270;DHT22;3168;51.684;6.954;2024-02-26T14:56:54;6.50;1.00
6270;DHT22;3168;51.684;6.954;2024-02-26T14:59:20;6.50;1.00
6270;DHT22;3168;51.684;6.954;2024-02-26T15:01:46;6.50;1.00
6270;DHT22;3168;51.684;6.954;2024-02-26T15:04:13;6.50;1.00
6270;DHT22;3168;51.684;6.954;2024-02-26T15:06:41;6.50;1.00
6270;DHT22;3168;51.684;6.954;2024-02-26T15:09:07;6.50;1.00
6270;DHT22;3168;51.684;6.954;2024-02-26T15:11:32;6.50;1.00
6270;DHT22;3168;51.684;6.954;2024-02-26T15:14:00;6.50;1.00
6270;DHT22;3168;51.684;6.954;2024-02-26T15:16:25;6.50;1.00
6270;DHT22;3168;51.684;6.954;2024-02-26T15:18:51;6.40;1.00
6270;DHT22;3168;51.684;6.954;2024-02-26T15:21:17;6.40;1.00
6270;DHT22;3168;51.684;6.954;2024-02-26T15:23:43;6.40;1.00
6270;DHT22;3168;51.684;6.954;2024-02-26T15:26:11;6.40;1.00
6270;DHT22;3168;51.684;6.954;2024-02-26T15:28:37;6.40;1.00
6270;DHT22;3168;51.684;6.954;2024-02-26T15:31:03;6.40;1.00
6270;DHT22;3168;51.684;6.954;2024-02-26T15:33:29;6.40;1.00
6270;DHT22;3168;51.684;6.954;2024-02-26T15:35:54;6.40;1.00
6270;DHT22;3168;51.684;6.954;2024-02-26T15:38:20;6.40;1.00
6270;DHT22;3168;51.684;6.954;2024-02-26T15:40:46;6.40;1.00
6270;DHT22;3168;51.684;6.954;2024-02-26T15:43:13;6.40;1.00
6270;DHT22;3168;51.684;6.954;2024-02-26T15:45:40;6.40;1.00
6270;DHT22;3168;51.684;6.954;2024-02-26T15:48:06;6.40;1.00
6270;DHT22;3168;51.684;6.954;2024-02-26T15:50:33;6.40;1.00
6270;DHT22;3168;51.684;6.954;2024-02-26T15:52:59;6.40;1.00
6270;DHT22;3168;51.684;6.954;2024-02-26T15:55:26;6.40;1.00
6270;DHT22;3168;51.684;6.954;2024-02-26T15:57:52;6.40;1.00
6270;DHT22;3168;51.684;6.954;2024-02-26T16:00:18;6.30;1.00
6270;DHT22;3168;51.684;6.954;2024-02-26T16:02:46;6.30;1.00
6270;DHT22;3168;51.684;6.954;2024-02-26T16:05:10;6.30;1.00
6270;DHT22;3168;51.684;6.954;2024-02-26T16:07:43;6.30;7.30
6270;DHT22;3168;51.684;6.954;2024-02-26T16:10:08;6.20;14.90
6270;DHT22;3168;51.684;6.954;2024-02-26T16:12:38;6.20;29.80
6270;DHT22;3168;51.684;6.954;2024-02-26T16:15:03;6.20;41.30
6270;DHT22;3168;51.684;6.954;2024-02-26T16:17:30;6.20;40.70
6270;DHT22;3168;51.684;6.954;2024-02-26T16:19:55;6.30;41.00
6270;DHT22;3168;51.684;6.954;2024-02-26T16:22:20;6.20;36.60